sensor_id;sensor_type;location;lat;lon;timestamp;P1;durP1;ratioP1;P2;durP2;ratioP2
33714;SDS011;20043;50.998;4.754;2023-07-09T00:00:14;9.50;;;7.15;;
33714;SDS011;20043;50.998;4.754;2023-07-09T00:02:42;10.25;;;6.90;;
33714;SDS011;20043;50.998;4.754;2023-07-09T00:05:12;11.38;;;7.30;;
33714;SDS011;20043;50.998;4.754;2023-07-09T00:07:39;8.70;;;7.25;;
33714;SDS011;20043;50.998;4.754;2023-07-09T00:10:16;9.02;;;6.97;;
33714;SDS011;20043;50.998;4.754;2023-07-09T00:12:44;11.75;;;7.93;;
33714;SDS011;20043;50.998;4.754;2023-07-09T00:15:11;11.48;;;7.47;;
33714;SDS011;20043;50.998;4.754;2023-07-09T00:17:38;12.18;;;7.10;;
33714;SDS011;20043;50.998;4.754;2023-07-09T00:20:05;11.02;;;7.22;;
33714;SDS011;20043;50.998;4.754;2023-07-09T00:22:36;11.95;;;6.60;;
33714;SDS011;20043;50.998;4.754;2023-07-09T00:25:02;12.40;;;7.05;;
33714;SDS011;20043;50.998;4.754;2023-07-09T00:27:29;9.85;;;6.97;;
33714;SDS011;20043;50.998;4.754;2023-07-09T00:29:58;10.38;;;7.28;;
33714;SDS011;20043;50.998;4.754;2023-07-09T00:32:23;10.55;;;7.13;;
33714;SDS011;20043;50.998;4.754;2023-07-09T00:34:50;10.80;;;6.80;;
33714;SDS011;20043;50.998;4.754;2023-07-09T00:37:19;9.90;;;7.15;;
33714;SDS011;20043;50.998;4.754;2023-07-09T00:39:50;12.88;;;7.82;;
33714;SDS011;20043;50.998;4.754;2023-07-09T00:42:17;12.10;;;6.93;;
33714;SDS011;20043;50.998;4.754;2023-07-09T00:44:46;11.63;;;7.90;;
33714;SDS011;20043;50.998;4.754;2023-07-09T00:47:21;11.52;;;8.05;;
33714;SDS011;20043;50.998;4.754;2023-07-09T00:53:17;10.90;;;8.23;;
33714;SDS011;20043;50.998;4.754;2023-07-09T00:55:47;13.65;;;7.75;;
33714;SDS011;20043;50.998;4.754;2023-07-09T00:58:22;12.27;;;7.85;;
33714;SDS011;20043;50.998;4.754;2023-07-09T01:00:53;11.20;;;7.55;;
33714;SDS011;20043;50.998;4.754;2023-07-09T01:06:06;14.43;;;7.57;;
33714;SDS011;20043;50.998;4.754;2023-07-09T01:08:33;13.65;;;7.22;;
33714;SDS011;20043;50.998;4.754;2023-07-09T01:11:01;13.05;;;7.00;;
33714;SDS011;20043;50.998;4.754;2023-07-09T01:13:27;16.67;;;7.72;;
33714;SDS011;20043;50.998;4.754;2023-07-09T01:15:54;14.73;;;7.70;;
33714;SDS011;20043;50.998;4.754;2023-07-09T01:18:20;13.52;;;7.40;;
33714;SDS011;20043;50.998;4.754;2023-07-09T01:20:46;10.10;;;7.60;;
33714;SDS011;20043;50.998;4.754;2023-07-09T01:23:12;14.63;;;7.40;;
33714;SDS011;20043;50.998;4.754;2023-07-09T01:25:42;10.30;;;7.30;;
33714;SDS011;20043;50.998;4.754;2023-07-09T01:28:10;13.93;;;7.45;;
33714;SDS011;20043;50.998;4.754;2023-07-09T01:30:36;9.57;;;7.32;;
33714;SDS011;20043;50.998;4.754;2023-07-09T01:33:04;12.75;;;7.38;;
33714;SDS011;20043;50.998;4.754;2023-07-09T01:35:31;13.98;;;7.60;;
33714;SDS011;20043;50.998;4.754;2023-07-09T01:37:58;10.77;;;7.75;;
33714;SDS011;20043;50.998;4.754;2023-07-09T01:40:25;12.30;;;8.05;;
33714;SDS011;20043;50.998;4.754;2023-07-09T01:42:52;10.27;;;7.60;;
33714;SDS011;20043;50.998;4.754;2023-07-09T01:45:20;11.45;;;7.20;;
33714;SDS011;20043;50.998;4.754;2023-07-09T01:47:46;10.48;;;7.30;;
33714;SDS011;20043;50.998;4.754;2023-07-09T01:50:12;9.52;;;7.18;;
33714;SDS011;20043;50.998;4.754;2023-07-09T01:52:38;10.80;;;7.55;;
33714;SDS011;20043;50.998;4.754;2023-07-09T01:55:07;13.30;;;7.28;;
33714;SDS011;20043;50.998;4.754;2023-07-09T01:57:35;11.00;;;7.15;;
33714;SDS011;20043;50.998;4.754;2023-07-09T02:00:03;13.88;;;7.75;;
33714;SDS011;20043;50.998;4.754;2023-07-09T02:02:30;10.07;;;7.63;;
33714;SDS011;20043;50.998;4.754;2023-07-09T02:04:57;10.50;;;7.57;;
33714;SDS011;20043;50.998;4.754;2023-07-09T02:07:23;11.32;;;7.50;;
33714;SDS011;20043;50.998;4.754;2023-07-09T02:09:50;10.27;;;7.03;;
33714;SDS011;20043;50.998;4.754;2023-07-09T02:12:16;11.43;;;7.07;;
33714;SDS011;20043;50.998;4.754;2023-07-09T02:14:43;12.70;;;7.53;;
33714;SDS011;20043;50.998;4.754;2023-07-09T02:17:10;11.65;;;6.97;;
33714;SDS011;20043;50.998;4.754;2023-07-09T02:19:36;9.35;;;6.88;;
33714;SDS011;20043;50.998;4.754;2023-07-09T02:22:02;8.30;;;6.43;;
33714;SDS011;20043;50.998;4.754;2023-07-09T02:24:29;9.98;;;6.93;;
33714;SDS011;20043;50.998;4.754;2023-07-09T02:26:55;9.65;;;6.80;;
33714;SDS011;20043;50.998;4.754;2023-07-09T02:29:22;12.60;;;6.85;;
33714;SDS011;20043;50.998;4.754;2023-07-09T02:31:49;11.95;;;6.82;;
33714;SDS011;20043;50.998;4.754;2023-07-09T02:34:16;12.00;;;6.85;;
33714;SDS011;20043;50.998;4.754;2023-07-09T02:36:45;13.18;;;7.22;;
33714;SDS011;20043;50.998;4.754;2023-07-09T02:39:12;11.75;;;6.32;;
33714;SDS011;20043;50.998;4.754;2023-07-09T02:41:41;11.55;;;6.43;;
33714;SDS011;20043;50.998;4.754;2023-07-09T02:44:07;16.10;;;6.70;;
33714;SDS011;20043;50.998;4.754;2023-07-09T02:46:33;13.10;;;6.85;;
33714;SDS011;20043;50.998;4.754;2023-07-09T02:48:59;9.57;;;6.50;;
33714;SDS011;20043;50.998;4.754;2023-07-09T02:51:25;11.45;;;6.20;;
33714;SDS011;20043;50.998;4.754;2023-07-09T02:53:55;11.35;;;6.20;;
33714;SDS011;20043;50.998;4.754;2023-07-09T02:56:22;11.63;;;6.93;;
33714;SDS011;20043;50.998;4.754;2023-07-09T02:58:49;11.25;;;6.07;;
33714;SDS011;20043;50.998;4.754;2023-07-09T03:01:15;9.52;;;6.20;;
33714;SDS011;20043;50.998;4.754;2023-07-09T03:03:41;9.23;;;5.43;;
33714;SDS011;20043;50.998;4.754;2023-07-09T03:06:07;7.35;;;6.03;;
33714;SDS011;20043;50.998;4.754;2023-07-09T03:08:33;12.45;;;5.50;;
33714;SDS011;20043;50.998;4.754;2023-07-09T03:10:59;12.57;;;6.22;;
33714;SDS011;20043;50.998;4.754;2023-07-09T03:13:25;9.25;;;5.55;;
33714;SDS011;20043;50.998;4.754;2023-07-09T03:15:57;11.60;;;5.72;;
33714;SDS011;20043;50.998;4.754;2023-07-09T03:18:23;11.30;;;5.82;;
33714;SDS011;20043;50.998;4.754;2023-07-09T03:20:49;11.00;;;5.50;;
33714;SDS011;20043;50.998;4.754;2023-07-09T03:23:15;9.43;;;5.40;;
33714;SDS011;20043;50.998;4.754;2023-07-09T03:25:42;13.52;;;6.20;;
33714;SDS011;20043;50.998;4.754;2023-07-09T03:28:08;10.02;;;5.25;;
33714;SDS011;20043;50.998;4.754;2023-07-09T03:30:34;10.25;;;5.65;;
33714;SDS011;20043;50.998;4.754;2023-07-09T03:32:59;11.15;;;5.43;;
33714;SDS011;20043;50.998;4.754;2023-07-09T03:35:25;11.65;;;5.13;;
33714;SDS011;20043;50.998;4.754;2023-07-09T03:37:51;9.88;;;5.53;;
33714;SDS011;20043;50.998;4.754;2023-07-09T03:40:21;11.68;;;6.28;;
33714;SDS011;20043;50.998;4.754;2023-07-09T03:42:47;10.18;;;6.00;;
33714;SDS011;20043;50.998;4.754;2023-07-09T03:45:13;8.25;;;5.95;;
33714;SDS011;20043;50.998;4.754;2023-07-09T03:47:39;8.50;;;5.53;;
33714;SDS011;20043;50.998;4.754;2023-07-09T03:50:06;10.98;;;5.85;;
33714;SDS011;20043;50.998;4.754;2023-07-09T03:52:33;10.30;;;5.50;;
33714;SDS011;20043;50.998;4.754;2023-07-09T03:54:58;11.38;;;5.30;;
33714;SDS011;20043;50.998;4.754;2023-07-09T03:57:26;12.07;;;5.45;;
33714;SDS011;20043;50.998;4.754;2023-07-09T03:59:52;8.57;;;5.13;;
33714;SDS011;20043;50.998;4.754;2023-07-09T04:02:17;17.65;;;5.43;;
33714;SDS011;20043;50.998;4.754;2023-07-09T04:04:43;8.73;;;5.32;;
33714;SDS011;20043;50.998;4.754;2023-07-09T04:07:09;8.88;;;4.75;;
33714;SDS011;20043;50.998;4.754;2023-07-09T04:09:34;8.73;;;5.32;;
33714;SDS011;20043;50.998;4.754;2023-07-09T04:12:00;13.65;;;5.55;;
33714;SDS011;20043;50.998;4.754;2023-07-09T04:14:28;7.50;;;5.15;;
33714;SDS011;20043;50.998;4.754;2023-07-09T04:16:54;11.07;;;5.30;;
33714;SDS011;20043;50.998;4.754;2023-07-09T04:19:20;9.07;;;5.57;;
33714;SDS011;20043;50.998;4.754;2023-07-09T04:21:45;9.32;;;4.82;;
33714;SDS011;20043;50.998;4.754;2023-07-09T04:24:11;10.95;;;5.28;;
33714;SDS011;20043;50.998;4.754;2023-07-09T04:26:41;8.32;;;5.20;;
33714;SDS011;20043;50.998;4.754;2023-07-09T04:29:07;10.68;;;5.20;;
33714;SDS011;20043;50.998;4.754;2023-07-09T04:31:33;12.70;;;5.28;;
33714;SDS011;20043;50.998;4.754;2023-07-09T04:33:58;8.80;;;5.55;;
33714;SDS011;20043;50.998;4.754;2023-07-09T04:36:24;10.55;;;4.82;;
33714;SDS011;20043;50.998;4.754;2023-07-09T04:38:51;9.43;;;4.88;;
33714;SDS011;20043;50.998;4.754;2023-07-09T04:41:16;7.88;;;5.07;;
33714;SDS011;20043;50.998;4.754;2023-07-09T04:43:42;12.00;;;5.15;;
33714;SDS011;20043;50.998;4.754;2023-07-09T04:46:08;7.38;;;4.93;;
33714;SDS011;20043;50.998;4.754;2023-07-09T04:48:33;9.13;;;5.13;;
33714;SDS011;20043;50.998;4.754;2023-07-09T04:50:59;9.82;;;5.05;;
33714;SDS011;20043;50.998;4.754;2023-07-09T04:53:25;7.53;;;4.88;;
33714;SDS011;20043;50.998;4.754;2023-07-09T04:55:51;7.35;;;4.85;;
33714;SDS011;20043;50.998;4.754;2023-07-09T04:58:17;12.48;;;5.03;;
33714;SDS011;20043;50.998;4.754;2023-07-09T05:00:45;7.25;;;4.50;;
33714;SDS011;20043;50.998;4.754;2023-07-09T05:03:11;7.93;;;4.65;;
33714;SDS011;20043;50.998;4.754;2023-07-09T05:05:43;7.57;;;4.47;;
33714;SDS011;20043;50.998;4.754;2023-07-09T05:08:11;11.43;;;5.22;;
33714;SDS011;20043;50.998;4.754;2023-07-09T05:10:48;15.00;;;5.28;;
33714;SDS011;20043;50.998;4.754;2023-07-09T05:13:15;8.38;;;4.63;;
33714;SDS011;20043;50.998;4.754;2023-07-09T05:15:43;7.40;;;4.78;;
33714;SDS011;20043;50.998;4.754;2023-07-09T05:18:10;12.82;;;5.40;;
33714;SDS011;20043;50.998;4.754;2023-07-09T05:20:36;9.82;;;4.72;;
33714;SDS011;20043;50.998;4.754;2023-07-09T05:23:02;8.10;;;4.80;;
33714;SDS011;20043;50.998;4.754;2023-07-09T05:25:28;7.38;;;4.88;;
33714;SDS011;20043;50.998;4.754;2023-07-09T05:27:53;9.60;;;4.80;;
33714;SDS011;20043;50.998;4.754;2023-07-09T05:30:19;9.25;;;4.70;;
33714;SDS011;20043;50.998;4.754;2023-07-09T05:32:45;7.35;;;4.82;;
33714;SDS011;20043;50.998;4.754;2023-07-09T05:35:11;6.90;;;4.93;;
33714;SDS011;20043;50.998;4.754;2023-07-09T05:37:37;9.68;;;4.45;;
33714;SDS011;20043;50.998;4.754;2023-07-09T05:40:04;9.38;;;5.00;;
33714;SDS011;20043;50.998;4.754;2023-07-09T05:42:31;12.98;;;4.55;;
33714;SDS011;20043;50.998;4.754;2023-07-09T05:44:56;7.75;;;4.93;;
33714;SDS011;20043;50.998;4.754;2023-07-09T05:47:22;10.02;;;4.90;;
33714;SDS011;20043;50.998;4.754;2023-07-09T05:49:48;9.50;;;4.50;;
33714;SDS011;20043;50.998;4.754;2023-07-09T05:52:16;11.57;;;4.45;;
33714;SDS011;20043;50.998;4.754;2023-07-09T05:54:42;7.18;;;5.18;;
33714;SDS011;20043;50.998;4.754;2023-07-09T05:57:08;8.95;;;4.63;;
33714;SDS011;20043;50.998;4.754;2023-07-09T05:59:35;6.90;;;4.30;;
33714;SDS011;20043;50.998;4.754;2023-07-09T06:02:00;8.32;;;4.63;;
33714;SDS011;20043;50.998;4.754;2023-07-09T06:04:26;10.18;;;5.00;;
33714;SDS011;20043;50.998;4.754;2023-07-09T06:06:52;9.50;;;4.60;;
33714;SDS011;20043;50.998;4.754;2023-07-09T06:09:17;11.13;;;4.88;;
33714;SDS011;20043;50.998;4.754;2023-07-09T06:11:43;9.27;;;4.70;;
33714;SDS011;20043;50.998;4.754;2023-07-09T06:14:09;8.88;;;4.18;;
33714;SDS011;20043;50.998;4.754;2023-07-09T06:16:35;8.95;;;4.30;;
33714;SDS011;20043;50.998;4.754;2023-07-09T06:19:02;9.48;;;4.63;;
33714;SDS011;20043;50.998;4.754;2023-07-09T06:21:28;7.50;;;4.38;;
33714;SDS011;20043;50.998;4.754;2023-07-09T06:23:54;8.10;;;4.38;;
33714;SDS011;20043;50.998;4.754;2023-07-09T06:26:20;10.00;;;5.10;;
33714;SDS011;20043;50.998;4.754;2023-07-09T06:28:45;12.38;;;4.53;;
33714;SDS011;20043;50.998;4.754;2023-07-09T06:31:11;10.15;;;4.63;;
33714;SDS011;20043;50.998;4.754;2023-07-09T06:33:37;8.13;;;4.65;;
33714;SDS011;20043;50.998;4.754;2023-07-09T06:36:02;8.05;;;4.88;;
33714;SDS011;20043;50.998;4.754;2023-07-09T06:38:29;10.63;;;4.45;;
33714;SDS011;20043;50.998;4.754;2023-07-09T06:40:56;9.07;;;4.38;;
33714;SDS011;20043;50.998;4.754;2023-07-09T06:43:22;11.38;;;4.32;;
33714;SDS011;20043;50.998;4.754;2023-07-09T06:45:55;9.90;;;4.80;;
33714;SDS011;20043;50.998;4.754;2023-07-09T06:48:22;11.27;;;4.73;;
33714;SDS011;20043;50.998;4.754;2023-07-09T06:50:48;11.38;;;4.53;;
33714;SDS011;20043;50.998;4.754;2023-07-09T06:53:14;8.45;;;4.72;;
33714;SDS011;20043;50.998;4.754;2023-07-09T06:55:41;10.15;;;4.97;;
33714;SDS011;20043;50.998;4.754;2023-07-09T06:58:06;9.95;;;4.90;;
33714;SDS011;20043;50.998;4.754;2023-07-09T07:00:33;9.52;;;4.65;;
33714;SDS011;20043;50.998;4.754;2023-07-09T07:03:00;10.85;;;4.68;;
33714;SDS011;20043;50.998;4.754;2023-07-09T07:05:26;12.13;;;4.55;;
33714;SDS011;20043;50.998;4.754;2023-07-09T07:07:51;11.65;;;4.32;;
33714;SDS011;20043;50.998;4.754;2023-07-09T07:10:18;8.45;;;4.57;;
33714;SDS011;20043;50.998;4.754;2023-07-09T07:12:45;10.10;;;4.45;;
33714;SDS011;20043;50.998;4.754;2023-07-09T07:15:12;13.73;;;4.88;;
33714;SDS011;20043;50.998;4.754;2023-07-09T07:17:39;8.20;;;4.45;;
33714;SDS011;20043;50.998;4.754;2023-07-09T07:20:05;8.75;;;4.28;;
33714;SDS011;20043;50.998;4.754;2023-07-09T07:22:32;11.00;;;4.57;;
33714;SDS011;20043;50.998;4.754;2023-07-09T07:24:58;13.82;;;4.57;;
33714;SDS011;20043;50.998;4.754;2023-07-09T07:27:23;10.00;;;4.53;;
33714;SDS011;20043;50.998;4.754;2023-07-09T07:29:49;9.88;;;4.65;;
33714;SDS011;20043;50.998;4.754;2023-07-09T07:32:14;8.55;;;4.53;;
33714;SDS011;20043;50.998;4.754;2023-07-09T07:34:40;11.25;;;4.80;;
33714;SDS011;20043;50.998;4.754;2023-07-09T07:37:06;10.93;;;4.88;;
33714;SDS011;20043;50.998;4.754;2023-07-09T07:39:31;8.00;;;4.72;;
33714;SDS011;20043;50.998;4.754;2023-07-09T07:42:04;9.32;;;4.70;;
33714;SDS011;20043;50.998;4.754;2023-07-09T07:44:30;11.43;;;5.22;;
33714;SDS011;20043;50.998;4.754;2023-07-09T07:46:55;10.68;;;4.85;;
33714;SDS011;20043;50.998;4.754;2023-07-09T07:49:21;7.90;;;4.68;;
33714;SDS011;20043;50.998;4.754;2023-07-09T07:51:47;10.82;;;4.75;;
33714;SDS011;20043;50.998;4.754;2023-07-09T07:54:13;11.75;;;5.22;;
33714;SDS011;20043;50.998;4.754;2023-07-09T07:56:42;12.43;;;5.15;;
33714;SDS011;20043;50.998;4.754;2023-07-09T07:59:08;11.88;;;5.85;;
33714;SDS011;20043;50.998;4.754;2023-07-09T08:01:33;9.35;;;5.15;;
33714;SDS011;20043;50.998;4.754;2023-07-09T08:04:01;9.98;;;5.25;;
33714;SDS011;20043;50.998;4.754;2023-07-09T08:06:27;16.63;;;5.85;;
33714;SDS011;20043;50.998;4.754;2023-07-09T08:08:53;9.48;;;5.38;;
33714;SDS011;20043;50.998;4.754;2023-07-09T08:11:18;10.32;;;5.70;;
33714;SDS011;20043;50.998;4.754;2023-07-09T08:13:44;12.48;;;5.13;;
33714;SDS011;20043;50.998;4.754;2023-07-09T08:16:10;14.63;;;4.80;;
33714;SDS011;20043;50.998;4.754;2023-07-09T08:18:37;11.77;;;4.97;;
33714;SDS011;20043;50.998;4.754;2023-07-09T08:21:03;15.10;;;4.85;;
33714;SDS011;20043;50.998;4.754;2023-07-09T08:23:29;8.45;;;4.70;;
33714;SDS011;20043;50.998;4.754;2023-07-09T08:25:56;6.90;;;4.75;;
33714;SDS011;20043;50.998;4.754;2023-07-09T08:28:23;7.35;;;4.63;;
33714;SDS011;20043;50.998;4.754;2023-07-09T08:30:51;8.65;;;5.00;;
33714;SDS011;20043;50.998;4.754;2023-07-09T08:33:18;9.15;;;4.90;;
33714;SDS011;20043;50.998;4.754;2023-07-09T08:35:44;10.38;;;4.38;;
33714;SDS011;20043;50.998;4.754;2023-07-09T08:38:09;11.07;;;5.10;;
33714;SDS011;20043;50.998;4.754;2023-07-09T08:40:41;11.60;;;4.53;;
33714;SDS011;20043;50.998;4.754;2023-07-09T08:43:24;10.25;;;4.75;;
33714;SDS011;20043;50.998;4.754;2023-07-09T08:48:29;10.27;;;4.47;;
33714;SDS011;20043;50.998;4.754;2023-07-09T08:50:59;8.90;;;4.80;;
33714;SDS011;20043;50.998;4.754;2023-07-09T08:53:43;9.05;;;4.50;;
33714;SDS011;20043;50.998;4.754;2023-07-09T08:56:19;9.43;;;5.00;;
33714;SDS011;20043;50.998;4.754;2023-07-09T08:58:46;11.77;;;5.28;;
33714;SDS011;20043;50.998;4.754;2023-07-09T09:01:19;10.48;;;5.22;;
33714;SDS011;20043;50.998;4.754;2023-07-09T09:03:50;9.98;;;5.05;;
33714;SDS011;20043;50.998;4.754;2023-07-09T09:06:22;11.02;;;4.95;;
33714;SDS011;20043;50.998;4.754;2023-07-09T09:14:39;13.85;;;5.22;;
33714;SDS011;20043;50.998;4.754;2023-07-09T09:17:11;12.68;;;5.80;;
33714;SDS011;20043;50.998;4.754;2023-07-09T09:19:52;15.82;;;5.63;;
33714;SDS011;20043;50.998;4.754;2023-07-09T09:22:36;11.98;;;5.53;;
33714;SDS011;20043;50.998;4.754;2023-07-09T09:27:40;10.43;;;6.25;;
33714;SDS011;20043;50.998;4.754;2023-07-09T09:30:17;14.18;;;6.60;;
33714;SDS011;20043;50.998;4.754;2023-07-09T09:32:47;11.70;;;6.18;;
33714;SDS011;20043;50.998;4.754;2023-07-09T09:35:25;10.82;;;6.00;;
33714;SDS011;20043;50.998;4.754;2023-07-09T09:37:57;9.90;;;5.97;;
33714;SDS011;20043;50.998;4.754;2023-07-09T09:40:24;17.15;;;6.72;;
33714;SDS011;20043;50.998;4.754;2023-07-09T09:42:52;17.80;;;7.28;;
33714;SDS011;20043;50.998;4.754;2023-07-09T09:45:20;12.43;;;6.38;;
33714;SDS011;20043;50.998;4.754;2023-07-09T09:47:51;12.52;;;7.07;;
33714;SDS011;20043;50.998;4.754;2023-07-09T09:50:17;11.00;;;6.20;;
33714;SDS011;20043;50.998;4.754;2023-07-09T09:52:45;7.90;;;5.63;;
33714;SDS011;20043;50.998;4.754;2023-07-09T09:55:19;11.38;;;6.70;;
33714;SDS011;20043;50.998;4.754;2023-07-09T09:57:48;14.55;;;6.55;;
33714;SDS011;20043;50.998;4.754;2023-07-09T10:00:18;11.77;;;6.72;;
33714;SDS011;20043;50.998;4.754;2023-07-09T10:02:47;12.85;;;7.82;;
33714;SDS011;20043;50.998;4.754;2023-07-09T10:05:14;13.27;;;7.38;;
33714;SDS011;20043;50.998;4.754;2023-07-09T10:07:44;13.85;;;7.88;;
33714;SDS011;20043;50.998;4.754;2023-07-09T10:10:28;16.42;;;7.38;;
33714;SDS011;20043;50.998;4.754;2023-07-09T10:23:27;18.55;;;10.38;;
33714;SDS011;20043;50.998;4.754;2023-07-09T10:31:42;14.65;;;8.63;;
33714;SDS011;20043;50.998;4.754;2023-07-09T10:34:56;16.33;;;8.32;;
33714;SDS011;20043;50.998;4.754;2023-07-09T10:40:10;14.25;;;6.82;;
33714;SDS011;20043;50.998;4.754;2023-07-09T10:42:50;13.05;;;9.50;;
33714;SDS011;20043;50.998;4.754;2023-07-09T10:45:34;17.30;;;10.23;;
33714;SDS011;20043;50.998;4.754;2023-07-09T10:48:10;18.88;;;10.07;;
33714;SDS011;20043;50.998;4.754;2023-07-09T10:50:56;14.32;;;9.40;;
33714;SDS011;20043;50.998;4.754;2023-07-09T10:53:28;17.30;;;9.90;;
33714;SDS011;20043;50.998;4.754;2023-07-09T10:56:09;17.67;;;9.10;;
33714;SDS011;20043;50.998;4.754;2023-07-09T10:59:04;17.48;;;9.63;;
33714;SDS011;20043;50.998;4.754;2023-07-09T11:01:43;20.88;;;11.98;;
33714;SDS011;20043;50.998;4.754;2023-07-09T11:04:20;17.20;;;10.10;;
33714;SDS011;20043;50.998;4.754;2023-07-09T11:06:56;14.10;;;11.23;;
33714;SDS011;20043;50.998;4.754;2023-07-09T11:09:30;16.52;;;9.40;;
33714;SDS011;20043;50.998;4.754;2023-07-09T11:12:08;17.50;;;9.48;;
33714;SDS011;20043;50.998;4.754;2023-07-09T11:17:51;16.80;;;7.80;;
33714;SDS011;20043;50.998;4.754;2023-07-09T11:20:18;15.25;;;7.47;;
33714;SDS011;20043;50.998;4.754;2023-07-09T11:25:44;12.75;;;7.00;;
33714;SDS011;20043;50.998;4.754;2023-07-09T11:28:11;13.65;;;7.00;;
33714;SDS011;20043;50.998;4.754;2023-07-09T11:30:54;12.23;;;5.90;;
33714;SDS011;20043;50.998;4.754;2023-07-09T11:33:29;13.63;;;5.60;;
33714;SDS011;20043;50.998;4.754;2023-07-09T11:36:08;8.63;;;5.32;;
33714;SDS011;20043;50.998;4.754;2023-07-09T11:38:40;8.70;;;4.97;;
33714;SDS011;20043;50.998;4.754;2023-07-09T11:43:52;9.15;;;4.95;;
33714;SDS011;20043;50.998;4.754;2023-07-09T11:46:26;7.18;;;4.80;;
33714;SDS011;20043;50.998;4.754;2023-07-09T11:48:52;9.90;;;4.75;;
33714;SDS011;20043;50.998;4.754;2023-07-09T11:51:23;8.27;;;4.63;;
33714;SDS011;20043;50.998;4.754;2023-07-09T11:54:12;7.65;;;4.80;;
33714;SDS011;20043;50.998;4.754;2023-07-09T11:56:38;7.10;;;4.75;;
33714;SDS011;20043;50.998;4.754;2023-07-09T11:59:04;8.95;;;4.80;;
33714;SDS011;20043;50.998;4.754;2023-07-09T12:01:43;7.00;;;4.50;;
33714;SDS011;20043;50.998;4.754;2023-07-09T12:04:15;7.20;;;5.00;;
33714;SDS011;20043;50.998;4.754;2023-07-09T12:06:42;7.85;;;5.18;;
33714;SDS011;20043;50.998;4.754;2023-07-09T12:09:13;7.82;;;4.60;;
33714;SDS011;20043;50.998;4.754;2023-07-09T12:11:45;10.55;;;5.50;;
33714;SDS011;20043;50.998;4.754;2023-07-09T12:14:22;10.32;;;5.30;;
33714;SDS011;20043;50.998;4.754;2023-07-09T12:16:49;8.07;;;5.07;;
33714;SDS011;20043;50.998;4.754;2023-07-09T12:19:21;11.55;;;5.35;;
33714;SDS011;20043;50.998;4.754;2023-07-09T12:21:49;11.20;;;5.40;;
33714;SDS011;20043;50.998;4.754;2023-07-09T12:24:22;8.80;;;5.35;;
33714;SDS011;20043;50.998;4.754;2023-07-09T12:26:56;12.23;;;5.13;;
33714;SDS011;20043;50.998;4.754;2023-07-09T12:29:27;8.18;;;4.70;;
33714;SDS011;20043;50.998;4.754;2023-07-09T12:31:58;7.57;;;4.95;;
33714;SDS011;20043;50.998;4.754;2023-07-09T12:34:30;14.88;;;5.25;;
33714;SDS011;20043;50.998;4.754;2023-07-09T12:36:57;6.88;;;4.80;;
33714;SDS011;20043;50.998;4.754;2023-07-09T12:39:27;10.88;;;4.97;;
33714;SDS011;20043;50.998;4.754;2023-07-09T12:41:59;10.80;;;5.10;;
33714;SDS011;20043;50.998;4.754;2023-07-09T12:44:26;8.85;;;5.15;;
33714;SDS011;20043;50.998;4.754;2023-07-09T12:46:56;15.45;;;5.00;;
33714;SDS011;20043;50.998;4.754;2023-07-09T12:51:49;10.02;;;5.13;;
33714;SDS011;20043;50.998;4.754;2023-07-09T12:56:42;32.67;;;7.85;;
33714;SDS011;20043;50.998;4.754;2023-07-09T12:59:16;24.08;;;7.30;;
33714;SDS011;20043;50.998;4.754;2023-07-09T13:04:48;20.27;;;8.13;;
33714;SDS011;20043;50.998;4.754;2023-07-09T13:07:24;18.05;;;7.80;;
33714;SDS011;20043;50.998;4.754;2023-07-09T13:09:51;17.20;;;8.43;;
33714;SDS011;20043;50.998;4.754;2023-07-09T13:12:19;20.52;;;7.95;;
33714;SDS011;20043;50.998;4.754;2023-07-09T13:14:55;15.65;;;8.35;;
33714;SDS011;20043;50.998;4.754;2023-07-09T13:17:21;15.13;;;6.82;;
33714;SDS011;20043;50.998;4.754;2023-07-09T13:19:47;16.80;;;7.90;;
33714;SDS011;20043;50.998;4.754;2023-07-09T13:22:14;13.75;;;8.32;;
33714;SDS011;20043;50.998;4.754;2023-07-09T13:24:42;13.18;;;7.70;;
33714;SDS011;20043;50.998;4.754;2023-07-09T13:27:08;15.73;;;7.68;;
33714;SDS011;20043;50.998;4.754;2023-07-09T13:29:38;10.95;;;7.35;;
33714;SDS011;20043;50.998;4.754;2023-07-09T13:32:11;13.93;;;7.38;;
33714;SDS011;20043;50.998;4.754;2023-07-09T13:34:40;14.18;;;6.80;;
33714;SDS011;20043;50.998;4.754;2023-07-09T13:37:09;12.93;;;7.35;;
33714;SDS011;20043;50.998;4.754;2023-07-09T13:39:38;13.75;;;7.25;;
33714;SDS011;20043;50.998;4.754;2023-07-09T13:42:05;12.00;;;7.35;;
33714;SDS011;20043;50.998;4.754;2023-07-09T13:44:43;17.55;;;7.38;;
33714;SDS011;20043;50.998;4.754;2023-07-09T13:47:13;10.13;;;6.10;;
33714;SDS011;20043;50.998;4.754;2023-07-09T13:49:41;7.82;;;6.60;;
33714;SDS011;20043;50.998;4.754;2023-07-09T13:52:13;12.52;;;6.45;;
33714;SDS011;20043;50.998;4.754;2023-07-09T13:54:44;10.63;;;6.13;;
33714;SDS011;20043;50.998;4.754;2023-07-09T13:57:14;9.32;;;6.50;;
33714;SDS011;20043;50.998;4.754;2023-07-09T13:59:45;12.65;;;6.55;;
33714;SDS011;20043;50.998;4.754;2023-07-09T14:02:17;10.85;;;7.10;;
33714;SDS011;20043;50.998;4.754;2023-07-09T14:04:44;10.98;;;6.90;;
33714;SDS011;20043;50.998;4.754;2023-07-09T14:07:29;11.75;;;7.03;;
33714;SDS011;20043;50.998;4.754;2023-07-09T14:09:56;13.52;;;8.05;;
33714;SDS011;20043;50.998;4.754;2023-07-09T14:12:22;12.15;;;8.23;;
33714;SDS011;20043;50.998;4.754;2023-07-09T14:14:52;11.40;;;6.75;;
33714;SDS011;20043;50.998;4.754;2023-07-09T14:17:20;11.95;;;7.47;;
33714;SDS011;20043;50.998;4.754;2023-07-09T14:19:47;13.00;;;7.05;;
33714;SDS011;20043;50.998;4.754;2023-07-09T14:22:25;9.23;;;6.45;;
33714;SDS011;20043;50.998;4.754;2023-07-09T14:24:56;13.48;;;7.30;;
33714;SDS011;20043;50.998;4.754;2023-07-09T14:27:22;11.02;;;6.95;;
33714;SDS011;20043;50.998;4.754;2023-07-09T14:29:48;10.77;;;6.88;;
33714;SDS011;20043;50.998;4.754;2023-07-09T14:32:22;12.90;;;6.72;;
33714;SDS011;20043;50.998;4.754;2023-07-09T14:34:57;14.68;;;7.47;;
33714;SDS011;20043;50.998;4.754;2023-07-09T14:37:23;10.32;;;7.25;;
33714;SDS011;20043;50.998;4.754;2023-07-09T14:39:49;9.80;;;7.28;;
33714;SDS011;20043;50.998;4.754;2023-07-09T14:42:14;13.45;;;7.25;;
33714;SDS011;20043;50.998;4.754;2023-07-09T14:44:41;10.70;;;6.90;;
33714;SDS011;20043;50.998;4.754;2023-07-09T14:47:10;11.90;;;6.93;;
33714;SDS011;20043;50.998;4.754;2023-07-09T14:49:40;11.23;;;6.40;;
33714;SDS011;20043;50.998;4.754;2023-07-09T14:52:14;11.40;;;6.35;;
33714;SDS011;20043;50.998;4.754;2023-07-09T14:54:46;10.90;;;6.00;;
33714;SDS011;20043;50.998;4.754;2023-07-09T14:57:23;11.38;;;6.45;;
33714;SDS011;20043;50.998;4.754;2023-07-09T14:59:51;12.18;;;6.95;;
33714;SDS011;20043;50.998;4.754;2023-07-09T15:02:39;9.85;;;6.88;;
33714;SDS011;20043;50.998;4.754;2023-07-09T15:05:06;15.38;;;6.32;;
33714;SDS011;20043;50.998;4.754;2023-07-09T15:07:46;12.43;;;6.72;;
33714;SDS011;20043;50.998;4.754;2023-07-09T15:10:13;10.90;;;6.53;;
33714;SDS011;20043;50.998;4.754;2023-07-09T15:12:40;8.70;;;5.65;;
33714;SDS011;20043;50.998;4.754;2023-07-09T15:15:22;9.45;;;5.18;;
33714;SDS011;20043;50.998;4.754;2023-07-09T15:17:52;8.50;;;5.23;;
33714;SDS011;20043;50.998;4.754;2023-07-09T15:20:23;10.00;;;5.50;;
33714;SDS011;20043;50.998;4.754;2023-07-09T15:22:51;12.32;;;5.55;;
33714;SDS011;20043;50.998;4.754;2023-07-09T15:25:22;10.18;;;6.15;;
33714;SDS011;20043;50.998;4.754;2023-07-09T15:27:49;11.60;;;5.57;;
33714;SDS011;20043;50.998;4.754;2023-07-09T15:32:46;10.95;;;5.57;;
33714;SDS011;20043;50.998;4.754;2023-07-09T15:35:13;9.48;;;5.10;;
33714;SDS011;20043;50.998;4.754;2023-07-09T15:37:40;13.68;;;6.07;;
33714;SDS011;20043;50.998;4.754;2023-07-09T15:43:05;7.90;;;4.80;;
33714;SDS011;20043;50.998;4.754;2023-07-09T15:45:33;8.45;;;5.00;;